Prospect Creek, Prospect Cree, AK

4:14 AM AKDT on July 29, 2016 (GMT -0800)
Bettles | | Change Station

Elev 643 ft 66.91 °N, 151.53 °W | Updated 21 minutes ago

Overcast
Overcast
54 °F
Feels Like 54 °F
N
6
Wind Variable Wind from South

Today
High -- | Low -- °F
--% Chance of Precip.
Yesterday
High -- | Low -- °F
Precip. -- in
Pressure 29.73 in
Visibility 5.0 miles
Clouds Overcast 600 ft
Dew Point 53 °F
Humidity 97%
Rainfall 0.09 in
Snow Depth Not available.
4:27 AM 11:46 PM
Waning Crescent, 22% visible
METAR PABT 291153Z 18005KT 5SM BR OVC006 12/12 A2971 RMK AO2 RAE51 CIG 004V008 SLP067 P0004 60004 70006 T01220117 10144 20122 58008
Pressure 29.73 in
Visibility 5.0 miles
Clouds Overcast 600 ft
Dew Point 53 °F
Humidity 97%
Rainfall 0.09 in
Snow Depth Not available.
4:27 AM 11:46 PM
Waning Crescent, 22% visible
METAR PABT 291153Z 18005KT 5SM BR OVC006 12/12 A2971 RMK AO2 RAE51 CIG 004V008 SLP067 P0004 60004 70006 T01220117 10144 20122 58008

10-Day Weather Forecast

Almanac

Astronomy

Jul. 29, 2016 Rise Set
Actual Time
Civil Twilight
Nautical Twilight
Astronomical Twilight
Moon
Length of Visible Light
Length of Day
Tomorrow will be .
, % of the Moon is Illuminated

Today's Extremes

State Highs State Lows

Community

WunderPhotos

Upload Photos

1,928,330 photos uploaded!

WunderBlog® & News

Nearby

Air Quality

  Air Quality AQ Index Pollutant
Not available.

Snow Depth

Station Depth Elevation

Earthquake Activity

City Distance Mag. Time & Date
Minimum magnitude displayed is 2.5.

Coastal Water Temperatures

Place Temperature

Stations

Nearby Weather Stations

Station Location Temp. Windchill Dew Point Humidity Wind Precip. Elev Updated Type
                   

Watches & Warnings

There are currently no watches in effect.